createdAt,value
2018-09-14T00:01:59.715Z,14.03
2018-09-14T00:04:27.128Z,16.10
2018-09-14T00:06:54.552Z,16.90
2018-09-14T00:09:22.025Z,16.60
2018-09-14T00:11:49.424Z,12.40
2018-09-14T00:14:16.862Z,12.90
2018-09-14T00:16:44.284Z,11.87
2018-09-14T00:19:11.701Z,13.43
2018-09-14T00:21:39.094Z,12.13
2018-09-14T00:24:06.535Z,11.13
2018-09-14T00:26:33.953Z,13.17
2018-09-14T00:29:01.367Z,16.40
2018-09-14T00:31:28.766Z,11.93
2018-09-14T00:33:56.195Z,16.83
2018-09-14T00:36:23.607Z,14.50
2018-09-14T00:38:51.065Z,17.57
2018-09-14T00:41:18.473Z,14.30
2018-09-14T00:43:45.904Z,13.97
2018-09-14T00:46:13.326Z,15.67
2018-09-14T00:48:40.728Z,13.97
2018-09-14T00:51:08.160Z,12.17
2018-09-14T00:53:35.568Z,14.37
2018-09-14T00:56:04.417Z,11.73
2018-09-14T00:58:30.414Z,18.17
2018-09-14T01:00:57.835Z,12.77
2018-09-14T01:03:25.246Z,13.27
2018-09-14T01:05:52.691Z,11.93
2018-09-14T01:08:20.100Z,11.87
2018-09-14T01:10:47.529Z,16.63
2018-09-14T01:13:14.936Z,17.03
2018-09-14T01:15:42.369Z,16.13
2018-09-14T01:18:09.782Z,18.40
2018-09-14T01:20:37.224Z,15.77
2018-09-14T01:23:04.638Z,22.43
2018-09-14T01:25:34.890Z,17.67
2018-09-14T01:28:02.294Z,17.67
2018-09-14T01:30:29.734Z,19.50
2018-09-14T01:32:57.128Z,20.13
2018-09-14T01:35:24.577Z,20.93
2018-09-14T01:37:59.858Z,18.47
2018-09-14T01:40:27.277Z,19.80
2018-09-14T01:42:54.722Z,19.07
2018-09-14T01:45:22.157Z,19.50
2018-09-14T01:47:49.592Z,16.00
2018-09-14T01:50:17.000Z,21.17
2018-09-14T01:52:44.432Z,20.73
2018-09-14T01:55:11.863Z,23.53
2018-09-14T01:57:40.455Z,21.60
2018-09-14T02:00:06.726Z,21.17
2018-09-14T02:02:34.150Z,21.17
2018-09-14T02:05:01.572Z,21.20
2018-09-14T02:07:29.008Z,19.73
2018-09-14T02:09:56.447Z,22.20
2018-09-14T02:12:23.880Z,21.33
2018-09-14T02:14:51.280Z,23.50
2018-09-14T02:17:18.722Z,17.00
2018-09-14T02:19:46.141Z,17.63
2018-09-14T02:22:13.591Z,19.13
2018-09-14T02:24:41.002Z,24.30
2018-09-14T02:27:08.439Z,18.63
2018-09-14T02:29:35.864Z,22.00
2018-09-14T02:32:03.319Z,19.37
2018-09-14T02:34:30.737Z,15.87
2018-09-14T02:36:58.141Z,19.40
2018-09-14T02:39:25.613Z,15.67
2018-09-14T02:41:53.304Z,13.70
2018-09-14T02:44:23.933Z,19.67
2018-09-14T02:46:54.041Z,21.50
2018-09-14T02:49:21.474Z,21.47
2018-09-14T02:51:48.946Z,21.20
2018-09-14T02:54:16.359Z,19.50
2018-09-14T02:56:43.769Z,18.30
2018-09-14T02:59:11.210Z,17.47
2018-09-14T03:01:38.615Z,21.33
2018-09-14T03:04:06.051Z,15.07
2018-09-14T03:06:33.446Z,19.07
2018-09-14T03:09:00.903Z,19.63
2018-09-14T03:11:28.328Z,22.37
2018-09-14T03:14:02.900Z,20.23
2018-09-14T03:16:30.345Z,20.23
2018-09-14T03:18:57.801Z,19.03
2018-09-14T03:21:25.208Z,22.40
2018-09-14T03:23:52.631Z,20.40
2018-09-14T03:26:20.081Z,23.30
2018-09-14T03:28:47.499Z,16.50
2018-09-14T03:31:14.919Z,16.60
2018-09-14T03:33:42.357Z,19.43
2018-09-14T03:36:09.823Z,26.27
2018-09-14T03:38:37.230Z,26.87
2018-09-14T03:41:04.670Z,23.53
2018-09-14T03:43:32.138Z,26.57
2018-09-14T03:45:59.512Z,26.30
2018-09-14T03:48:26.940Z,26.17
2018-09-14T03:50:54.358Z,31.13
2018-09-14T03:53:21.785Z,32.37
2018-09-14T03:55:49.184Z,28.37
2018-09-14T03:58:16.617Z,31.67
2018-09-14T04:00:44.047Z,30.47
2018-09-14T04:03:11.501Z,29.80
2018-09-14T04:05:38.933Z,30.53
2018-09-14T04:08:06.351Z,36.43
2018-09-14T04:10:33.779Z,35.80
2018-09-14T04:13:01.230Z,34.97
2018-09-14T04:15:28.668Z,30.90
2018-09-14T04:17:56.079Z,31.20
2018-09-14T04:20:23.505Z,32.87
2018-09-14T04:22:50.905Z,29.50
2018-09-14T04:25:18.345Z,34.20
2018-09-14T04:27:45.761Z,25.40
2018-09-14T04:30:13.187Z,27.30
2018-09-14T04:32:40.608Z,26.80
2018-09-14T04:35:08.039Z,37.83
2018-09-14T04:37:35.460Z,32.00
2018-09-14T04:40:02.866Z,34.90
2018-09-14T04:42:30.300Z,30.73
2018-09-14T04:44:57.710Z,26.67
2018-09-14T04:47:25.148Z,25.60
2018-09-14T04:49:52.556Z,25.57
2018-09-14T04:52:19.992Z,22.80
2018-09-14T04:54:47.410Z,25.43
2018-09-14T04:57:14.913Z,23.50
2018-09-14T04:59:42.267Z,22.90
2018-09-14T05:02:09.703Z,26.87
2018-09-14T05:04:37.113Z,27.20
2018-09-14T05:07:04.603Z,24.67
2018-09-14T05:09:31.988Z,26.97
2018-09-14T05:11:59.394Z,26.67
2018-09-14T05:14:26.828Z,27.17
2018-09-14T05:16:54.248Z,27.50
2018-09-14T05:19:21.696Z,30.33
2018-09-14T05:21:49.085Z,27.00
2018-09-14T05:24:16.605Z,29.77
2018-09-14T05:26:43.937Z,27.53
2018-09-14T05:29:11.366Z,32.20
2018-09-14T05:31:38.802Z,34.47
2018-09-14T05:34:06.212Z,26.30
2018-09-14T05:36:33.649Z,28.67
2018-09-14T05:39:01.062Z,28.30
2018-09-14T05:41:28.484Z,30.77
2018-09-14T05:43:55.901Z,26.47
2018-09-14T05:46:23.366Z,36.47
2018-09-14T05:48:50.760Z,27.30
2018-09-14T05:51:18.202Z,29.27
2018-09-14T05:53:45.612Z,29.93
2018-09-14T05:56:13.025Z,29.50
2018-09-14T05:58:40.481Z,27.40
2018-09-14T06:01:07.880Z,28.07
2018-09-14T06:03:35.327Z,29.07
2018-09-14T06:06:02.743Z,28.50
2018-09-14T06:08:30.158Z,31.00
2018-09-14T06:10:57.614Z,30.80
2018-09-14T06:13:25.020Z,34.33
2018-09-14T06:15:52.446Z,26.23
2018-09-14T06:18:19.883Z,27.93
2018-09-14T06:20:47.306Z,32.37
2018-09-14T06:23:14.745Z,25.67
2018-09-14T06:29:11.036Z,22.57
2018-09-14T06:31:38.473Z,16.67
2018-09-14T06:34:05.880Z,18.93
2018-09-14T06:36:33.302Z,19.43
2018-09-14T06:39:00.714Z,20.10
2018-09-14T06:41:28.155Z,22.13
2018-09-14T06:43:55.582Z,17.10
2018-09-14T06:46:22.986Z,23.30
2018-09-14T06:48:50.420Z,18.47
2018-09-14T06:51:17.867Z,20.90
2018-09-14T06:53:45.303Z,18.80
2018-09-14T06:56:12.724Z,21.43
2018-09-14T06:58:40.169Z,22.93
2018-09-14T07:01:07.609Z,18.30
2018-09-14T07:03:35.039Z,20.17
2018-09-14T07:06:02.444Z,19.57
2018-09-14T07:08:29.886Z,24.07
2018-09-14T07:10:57.295Z,19.17
2018-09-14T07:13:24.765Z,22.83
2018-09-14T07:15:52.190Z,20.73
2018-09-14T07:18:19.632Z,24.60
2018-09-14T07:20:47.050Z,31.27
2018-09-14T07:23:14.478Z,23.50
2018-09-14T07:25:41.899Z,21.00
2018-09-14T07:28:09.306Z,22.27
2018-09-14T07:30:36.762Z,21.73
2018-09-14T07:33:04.164Z,26.03
2018-09-14T07:35:31.606Z,21.23
2018-09-14T07:37:59.021Z,22.40
2018-09-14T07:40:26.455Z,20.73
2018-09-14T07:42:53.877Z,20.47
2018-09-14T07:45:21.331Z,20.43
2018-09-14T07:47:48.745Z,14.67
2018-09-14T07:50:16.194Z,23.33
2018-09-14T07:52:43.615Z,19.50
2018-09-14T07:55:11.076Z,19.63
2018-09-14T07:57:38.503Z,17.53
2018-09-14T08:00:06.002Z,19.97
2018-09-14T08:02:33.441Z,23.13
2018-09-14T08:05:00.857Z,22.73
2018-09-14T08:07:28.253Z,22.50
2018-09-14T08:09:55.684Z,25.07
2018-09-14T08:12:23.090Z,18.50
2018-09-14T08:14:50.543Z,17.40
2018-09-14T08:17:17.999Z,17.73
2018-09-14T08:19:45.415Z,17.27
2018-09-14T08:22:12.914Z,18.50
2018-09-14T08:24:40.316Z,14.93
2018-09-14T08:27:07.795Z,12.80
2018-09-14T08:29:35.231Z,15.50
2018-09-14T08:32:02.611Z,12.70
2018-09-14T08:34:30.045Z,13.83
2018-09-14T08:36:57.471Z,13.00
2018-09-14T08:39:24.931Z,15.53
2018-09-14T08:41:52.308Z,13.13
2018-09-14T08:44:19.741Z,14.87
2018-09-14T08:46:47.173Z,10.23
2018-09-14T08:49:14.665Z,11.77
2018-09-14T08:51:42.076Z,16.87
2018-09-14T08:54:09.513Z,10.43
2018-09-14T08:56:36.932Z,14.43
2018-09-14T08:59:04.351Z,9.67
2018-09-14T09:01:31.755Z,8.43
2018-09-14T09:03:59.241Z,10.93
2018-09-14T09:06:26.592Z,10.10
2018-09-14T09:08:54.031Z,13.80
2018-09-14T09:11:21.470Z,7.67
2018-09-14T09:13:48.932Z,8.80
2018-09-14T09:16:16.366Z,9.40
2018-09-14T09:18:43.783Z,8.20
2018-09-14T09:21:11.228Z,9.37
2018-09-14T09:23:38.624Z,10.10
2018-09-14T09:26:06.042Z,10.23
2018-09-14T09:28:33.455Z,7.33
2018-09-14T09:31:00.859Z,7.27
2018-09-14T09:33:28.289Z,5.77
2018-09-14T09:35:55.690Z,6.90
2018-09-14T09:38:23.129Z,5.63
2018-09-14T09:40:50.711Z,5.37
2018-09-14T09:43:18.256Z,7.20
2018-09-14T09:45:45.573Z,6.80
2018-09-14T09:48:12.997Z,7.87
2018-09-14T09:50:40.515Z,7.77
2018-09-14T09:53:07.962Z,7.23
2018-09-14T09:55:35.383Z,6.47
2018-09-14T09:58:02.838Z,17.13
2018-09-14T10:00:30.250Z,5.97
2018-09-14T10:02:57.669Z,6.20
2018-09-14T10:05:25.079Z,10.17
2018-09-14T10:07:52.497Z,6.67
2018-09-14T10:10:19.916Z,5.60
2018-09-14T10:12:47.443Z,7.67
2018-09-14T10:15:14.842Z,7.93
2018-09-14T10:17:42.266Z,7.07
2018-09-14T10:20:09.709Z,5.27
2018-09-14T10:22:37.130Z,8.43
2018-09-14T10:25:04.622Z,9.90
2018-09-14T10:27:32.018Z,7.20
2018-09-14T10:29:59.469Z,6.37
2018-09-14T10:32:26.876Z,7.87
2018-09-14T10:34:54.351Z,7.77
2018-09-14T10:37:21.760Z,5.00
2018-09-14T10:39:49.197Z,7.30
2018-09-14T10:42:16.629Z,5.87
2018-09-14T10:44:44.069Z,7.00
2018-09-14T10:47:11.468Z,7.80
2018-09-14T10:49:38.903Z,8.83
2018-09-14T10:52:06.300Z,4.50
2018-09-14T10:54:33.725Z,9.43
2018-09-14T10:57:01.176Z,7.17
2018-09-14T10:59:28.585Z,7.33
2018-09-14T11:01:55.992Z,8.57
2018-09-14T11:04:23.476Z,5.03
2018-09-14T11:06:50.874Z,5.60
2018-09-14T11:09:18.238Z,7.53
2018-09-14T11:11:45.639Z,7.00
2018-09-14T11:14:13.081Z,6.60
2018-09-14T11:16:40.496Z,8.00
2018-09-14T11:19:08.013Z,5.83
2018-09-14T11:21:35.335Z,4.30
2018-09-14T11:24:02.742Z,4.73
2018-09-14T11:26:30.189Z,5.57
2018-09-14T11:28:57.583Z,10.93
2018-09-14T11:31:25.006Z,5.60
2018-09-14T11:33:52.417Z,4.57
2018-09-14T11:36:19.835Z,5.40
2018-09-14T11:38:47.302Z,6.40
2018-09-14T11:41:14.629Z,6.40
2018-09-14T11:43:42.064Z,9.80
2018-09-14T11:46:09.569Z,5.87
2018-09-14T11:48:36.939Z,7.27
2018-09-14T11:51:04.339Z,6.43
2018-09-14T11:53:31.765Z,9.23
2018-09-14T11:55:59.172Z,6.27
2018-09-14T11:58:26.645Z,6.33
2018-09-14T12:00:53.993Z,7.03
2018-09-14T12:03:21.420Z,4.63
2018-09-14T12:05:48.828Z,7.17
2018-09-14T12:08:16.256Z,9.67
2018-09-14T12:10:43.691Z,6.00
2018-09-14T12:13:11.093Z,6.80
2018-09-14T12:15:38.585Z,6.53
2018-09-14T12:18:06.012Z,6.57
2018-09-14T12:20:33.551Z,8.50
2018-09-14T12:23:00.951Z,7.47
2018-09-14T12:25:28.369Z,6.90
2018-09-14T12:27:55.805Z,8.40
2018-09-14T12:30:23.207Z,7.07
2018-09-14T12:32:53.334Z,5.17
2018-09-14T12:35:20.752Z,7.00
2018-09-14T12:37:48.162Z,8.13
2018-09-14T12:40:15.590Z,10.83
2018-09-14T12:42:43.016Z,7.37
2018-09-14T12:45:10.435Z,8.57
2018-09-14T12:47:37.857Z,6.63
2018-09-14T12:50:05.293Z,10.20
2018-09-14T12:52:32.717Z,8.33
2018-09-14T12:55:00.145Z,10.60
2018-09-14T12:57:27.579Z,10.87
2018-09-14T12:59:54.985Z,7.80
2018-09-14T13:02:22.431Z,7.17
2018-09-14T13:04:49.832Z,8.50
2018-09-14T13:07:17.267Z,9.10
2018-09-14T13:09:44.684Z,6.23
2018-09-14T13:12:12.127Z,7.10
2018-09-14T13:14:39.622Z,8.73
2018-09-14T13:17:06.996Z,6.93
2018-09-14T13:19:34.464Z,8.50
2018-09-14T13:22:01.873Z,8.40
2018-09-14T13:24:29.316Z,7.50
2018-09-14T13:26:56.719Z,10.67
2018-09-14T13:29:24.123Z,13.20
2018-09-14T13:31:51.594Z,9.60
2018-09-14T13:34:18.995Z,8.20
2018-09-14T13:36:46.424Z,8.27
2018-09-14T13:39:13.831Z,10.17
2018-09-14T13:41:41.259Z,7.60
2018-09-14T13:44:08.680Z,4.90
2018-09-14T13:46:36.110Z,8.23
2018-09-14T13:49:03.526Z,12.67
2018-09-14T13:51:30.950Z,7.77
2018-09-14T13:53:58.371Z,5.27
2018-09-14T13:56:25.807Z,8.80
2018-09-14T13:58:53.215Z,8.70
2018-09-14T14:01:20.704Z,6.27
2018-09-14T14:03:48.065Z,6.77
2018-09-14T14:06:15.480Z,6.90
2018-09-14T14:08:42.919Z,9.20
2018-09-14T14:11:10.342Z,9.03
2018-09-14T14:13:37.756Z,8.17
2018-09-14T14:16:05.180Z,8.43
2018-09-14T14:18:32.600Z,8.63
2018-09-14T14:21:00.028Z,5.30
2018-09-14T14:23:27.450Z,4.43
2018-09-14T14:25:54.872Z,4.70
2018-09-14T14:28:22.310Z,5.60
2018-09-14T14:30:49.733Z,5.23
2018-09-14T14:33:17.149Z,10.90
2018-09-14T14:35:44.590Z,10.10
2018-09-14T14:38:12.008Z,7.77
2018-09-14T14:40:39.446Z,6.20
2018-09-14T14:43:06.843Z,8.73
2018-09-14T14:45:34.279Z,6.80
2018-09-14T14:48:01.706Z,8.23
2018-09-14T14:50:29.154Z,11.83
2018-09-14T14:52:56.576Z,8.00
2018-09-14T14:55:24.001Z,6.57
2018-09-14T14:57:51.532Z,5.83
2018-09-14T15:00:18.978Z,9.33
2018-09-14T15:02:46.423Z,11.27
2018-09-14T15:05:13.822Z,7.43
2018-09-14T15:07:41.248Z,5.63
2018-09-14T15:10:08.699Z,9.27
2018-09-14T15:12:36.110Z,6.43
2018-09-14T15:15:03.501Z,9.40
2018-09-14T15:17:30.959Z,6.97
2018-09-14T15:19:58.365Z,7.47
2018-09-14T15:22:25.826Z,8.13
2018-09-14T15:24:53.238Z,7.73
2018-09-14T15:27:20.688Z,7.13
2018-09-14T15:29:48.092Z,5.43
2018-09-14T15:32:15.530Z,8.93
2018-09-14T15:34:42.940Z,6.23
2018-09-14T15:37:10.405Z,6.93
2018-09-14T15:39:37.835Z,7.47
2018-09-14T15:42:05.275Z,7.80
2018-09-14T15:44:34.213Z,7.70
2018-09-14T15:47:00.127Z,9.00
2018-09-14T15:49:27.640Z,6.27
2018-09-14T15:51:54.971Z,7.07
2018-09-14T15:54:22.421Z,6.17
2018-09-14T15:56:49.816Z,7.37
2018-09-14T15:59:17.265Z,7.03
2018-09-14T16:01:44.735Z,5.70
2018-09-14T16:04:12.136Z,7.13
2018-09-14T16:06:39.576Z,8.80
2018-09-14T16:09:06.992Z,6.67
2018-09-14T16:11:34.429Z,5.37
2018-09-14T16:14:01.850Z,6.93
2018-09-14T16:16:29.285Z,5.30
2018-09-14T16:18:56.744Z,6.40
2018-09-14T16:21:24.140Z,5.47
2018-09-14T16:23:51.572Z,7.73
2018-09-14T16:26:19.037Z,6.43
2018-09-14T16:28:46.442Z,5.67
2018-09-14T16:31:13.887Z,8.60
2018-09-14T16:33:41.458Z,4.70
2018-09-14T16:36:08.857Z,5.63
2018-09-14T16:38:36.295Z,5.20
2018-09-14T16:41:32.164Z,5.93
2018-09-14T16:43:59.604Z,6.63
2018-09-14T16:46:27.035Z,5.33
2018-09-14T16:48:54.474Z,4.30
2018-09-14T16:51:21.906Z,4.63
2018-09-14T16:53:49.274Z,5.63
2018-09-14T16:56:16.708Z,12.20
2018-09-14T16:58:44.125Z,7.90
2018-09-14T17:01:11.559Z,6.27
2018-09-14T17:03:38.968Z,5.80
2018-09-14T17:06:06.448Z,8.87
2018-09-14T17:08:33.868Z,11.17
2018-09-14T17:11:01.318Z,7.10
2018-09-14T17:13:28.761Z,3.90
2018-09-14T17:15:56.180Z,6.17
2018-09-14T17:18:23.606Z,4.97
2018-09-14T17:20:51.025Z,8.67
2018-09-14T17:23:18.436Z,8.63
2018-09-14T17:25:45.896Z,9.07
2018-09-14T17:28:13.287Z,7.83
2018-09-14T17:30:40.684Z,5.10
2018-09-14T17:33:08.137Z,8.20
2018-09-14T17:35:35.621Z,7.43
2018-09-14T17:38:03.031Z,6.90
2018-09-14T17:40:30.511Z,8.60
2018-09-14T17:42:57.927Z,9.33
2018-09-14T17:45:25.328Z,9.30
2018-09-14T17:47:52.792Z,7.13
2018-09-14T17:50:20.219Z,8.83
2018-09-14T17:52:47.654Z,8.43
2018-09-14T17:55:15.065Z,10.70
2018-09-14T17:57:42.497Z,8.37
2018-09-14T18:00:09.905Z,11.50
2018-09-14T18:02:37.335Z,7.17
2018-09-14T18:05:04.804Z,5.57
2018-09-14T18:07:32.203Z,6.37
2018-09-14T18:09:59.630Z,7.13
2018-09-14T18:12:27.040Z,6.80
2018-09-14T18:14:54.495Z,9.67
2018-09-14T18:17:21.900Z,7.60
2018-09-14T18:19:49.327Z,6.97
2018-09-14T18:22:16.827Z,6.73
2018-09-14T18:24:44.191Z,5.27
2018-09-14T18:27:11.633Z,5.03
2018-09-14T18:29:39.073Z,5.27
2018-09-14T18:32:06.540Z,6.60
2018-09-14T18:34:33.950Z,5.10
2018-09-14T18:37:01.411Z,5.83
2018-09-14T18:39:28.847Z,6.83
2018-09-14T18:41:56.248Z,9.50
2018-09-14T18:44:23.708Z,4.70
2018-09-14T18:46:51.154Z,5.57
2018-09-14T18:49:18.608Z,8.17
2018-09-14T18:51:45.982Z,7.67
2018-09-14T18:54:13.429Z,10.67
2018-09-14T18:56:40.815Z,5.90
2018-09-14T18:59:08.234Z,10.13
2018-09-14T19:01:35.663Z,6.00
2018-09-14T19:04:03.055Z,6.37
2018-09-14T19:06:30.496Z,7.07
2018-09-14T19:08:57.949Z,7.93
2018-09-14T19:11:25.369Z,10.63
2018-09-14T19:13:52.850Z,5.17
2018-09-14T19:16:20.269Z,8.80
2018-09-14T19:18:47.721Z,8.63
2018-09-14T19:21:15.160Z,6.80
2018-09-14T19:23:42.623Z,6.63
2018-09-14T19:26:10.057Z,4.93
2018-09-14T19:28:37.461Z,5.47
2018-09-14T19:31:04.887Z,3.83
2018-09-14T19:33:32.344Z,6.77
2018-09-14T19:35:59.728Z,4.53
2018-09-14T19:38:27.256Z,5.93
2018-09-14T19:40:54.659Z,7.20
2018-09-14T19:43:22.071Z,5.50
2018-09-14T19:45:49.482Z,5.20
2018-09-14T19:48:16.926Z,6.93
2018-09-14T19:50:44.330Z,4.73
2018-09-14T19:53:11.730Z,3.90
2018-09-14T19:55:39.159Z,4.20
2018-09-14T19:58:06.586Z,3.43
2018-09-14T20:00:34.057Z,8.37
2018-09-14T20:03:01.496Z,7.30
2018-09-14T20:05:28.942Z,4.13
2018-09-14T20:07:56.356Z,4.43
2018-09-14T20:10:23.777Z,2.87
2018-09-14T20:12:51.188Z,4.70
2018-09-14T20:15:18.644Z,2.77
2018-09-14T20:17:46.077Z,6.17
2018-09-14T20:20:13.453Z,4.33
2018-09-14T20:22:40.903Z,2.93
2018-09-14T20:25:08.318Z,6.60
2018-09-14T20:27:35.757Z,3.37
2018-09-14T20:30:03.197Z,5.47
2018-09-14T20:32:30.714Z,2.83
2018-09-14T20:34:58.121Z,6.13
2018-09-14T20:37:25.725Z,8.83
2018-09-14T20:39:52.984Z,3.17
2018-09-14T20:42:20.396Z,3.07
2018-09-14T20:44:47.856Z,3.83
2018-09-14T20:47:15.277Z,4.93
2018-09-14T20:49:42.737Z,5.53
2018-09-14T20:52:10.122Z,2.73
2018-09-14T20:54:37.588Z,4.50
2018-09-14T20:57:05.006Z,3.33
2018-09-14T20:59:32.460Z,4.07
2018-09-14T21:01:59.866Z,6.67
2018-09-14T21:04:27.307Z,4.70
2018-09-14T21:06:54.718Z,10.23
2018-09-14T21:09:22.182Z,3.63
2018-09-14T21:11:49.624Z,3.20
2018-09-14T21:14:17.045Z,2.77
2018-09-14T21:16:44.439Z,4.10
2018-09-14T21:19:11.890Z,4.03
2018-09-14T21:21:39.302Z,4.60
2018-09-14T21:24:06.708Z,2.37
2018-09-14T21:26:34.142Z,3.00
2018-09-14T21:29:01.627Z,4.33
2018-09-14T21:31:28.983Z,6.60
2018-09-14T21:33:56.388Z,2.53
2018-09-14T21:36:23.832Z,2.83
2018-09-14T21:38:51.515Z,2.90
2018-09-14T21:41:18.893Z,3.53
2018-09-14T21:43:46.328Z,3.70
2018-09-14T21:46:13.742Z,3.93
2018-09-14T21:48:41.196Z,1.70
2018-09-14T21:51:08.626Z,6.43
2018-09-14T21:53:36.187Z,2.10
2018-09-14T21:56:03.547Z,1.93
2018-09-14T21:58:30.960Z,3.97
2018-09-14T22:00:58.388Z,4.10
2018-09-14T22:03:25.816Z,3.60
2018-09-14T22:05:53.253Z,4.80
2018-09-14T22:08:20.663Z,3.27
2018-09-14T22:10:48.094Z,3.30
2018-09-14T22:13:15.513Z,3.60
2018-09-14T22:15:42.918Z,2.33
2018-09-14T22:18:10.353Z,4.17
2018-09-14T22:20:37.754Z,5.77
2018-09-14T22:23:05.189Z,3.33
2018-09-14T22:25:32.567Z,4.50
2018-09-14T22:27:59.979Z,2.87
2018-09-14T22:30:27.373Z,3.23
2018-09-14T22:32:54.801Z,3.37
2018-09-14T22:35:22.269Z,2.47
2018-09-14T22:37:49.650Z,3.53
2018-09-14T22:40:17.084Z,3.70
2018-09-14T22:42:44.721Z,2.40
2018-09-14T22:45:12.112Z,7.30
2018-09-14T22:47:39.511Z,3.83
2018-09-14T22:50:06.944Z,5.00
2018-09-14T22:52:34.351Z,2.63
2018-09-14T22:55:01.772Z,4.50
2018-09-14T22:57:29.198Z,3.03
2018-09-14T22:59:56.637Z,5.93
2018-09-14T23:02:24.044Z,3.70
2018-09-14T23:04:51.525Z,2.50
2018-09-14T23:07:18.943Z,4.47
2018-09-14T23:09:46.401Z,5.07
2018-09-14T23:12:13.821Z,5.27
2018-09-14T23:14:41.253Z,2.30
2018-09-14T23:17:08.667Z,5.10
2018-09-14T23:19:36.115Z,4.30
2018-09-14T23:22:03.587Z,3.03
2018-09-14T23:24:31.017Z,3.80
2018-09-14T23:26:58.427Z,3.60
2018-09-14T23:29:25.846Z,2.43
2018-09-14T23:31:53.247Z,2.97
2018-09-14T23:34:20.670Z,3.93
2018-09-14T23:36:48.112Z,2.53
2018-09-14T23:39:15.508Z,3.00
2018-09-14T23:41:42.919Z,4.70
2018-09-14T23:44:10.316Z,4.00
2018-09-14T23:46:37.742Z,2.77
2018-09-14T23:49:05.133Z,4.83
2018-09-14T23:51:32.572Z,4.73
2018-09-14T23:53:59.987Z,3.87
2018-09-14T23:56:27.412Z,4.77
2018-09-14T23:58:54.813Z,3.63
